createdAt,value
2022-08-20T00:09:36.497Z,12.02
2022-08-20T00:19:58.536Z,10.73
2022-08-20T00:30:20.846Z,9.98
2022-08-20T00:40:52.895Z,11.73
2022-08-20T00:51:36.201Z,10.40
2022-08-20T01:01:58.257Z,12.07
2022-08-20T01:12:20.299Z,11.10
2022-08-20T01:23:30.108Z,10.05
2022-08-20T01:33:54.585Z,9.48
2022-08-20T01:44:18.526Z,10.57
2022-08-20T01:54:41.044Z,12.68
2022-08-20T02:05:02.704Z,10.35
2022-08-20T02:15:34.559Z,12.13
2022-08-20T02:25:59.264Z,12.23
2022-08-20T02:36:21.001Z,12.35
2022-08-20T02:46:42.619Z,15.77
2022-08-20T02:57:04.667Z,15.45
2022-08-20T03:07:26.223Z,19.40
2022-08-20T03:17:48.471Z,18.00
2022-08-20T03:28:10.741Z,18.70
2022-08-20T03:38:33.528Z,20.70
2022-08-20T03:48:59.936Z,22.23
2022-08-20T03:59:22.100Z,21.83
2022-08-20T04:09:46.435Z,26.08
2022-08-20T04:20:10.839Z,22.25
2022-08-20T04:30:33.419Z,22.73
2022-08-20T04:41:01.130Z,19.60
2022-08-20T04:51:22.917Z,22.35
2022-08-20T05:01:45.561Z,19.08
2022-08-20T05:12:07.453Z,22.35
2022-08-20T05:22:31.049Z,16.95
2022-08-20T05:32:52.684Z,16.13
2022-08-20T05:43:14.820Z,14.27
2022-08-20T05:53:37.626Z,15.02
2022-08-20T06:04:18.223Z,9.15
2022-08-20T06:14:39.848Z,13.77
2022-08-20T06:25:03.214Z,11.52
2022-08-20T06:35:25.198Z,13.75
2022-08-20T06:45:46.743Z,9.18
2022-08-20T06:56:08.365Z,14.50
2022-08-20T07:06:29.931Z,7.22
2022-08-20T07:16:51.499Z,12.10
2022-08-20T07:27:13.166Z,10.23
2022-08-20T07:37:40.848Z,6.43
2022-08-20T07:48:11.841Z,10.80
2022-08-20T07:58:36.635Z,11.95
2022-08-20T08:09:06.370Z,8.00
2022-08-20T08:19:33.791Z,3.80
2022-08-20T08:29:55.483Z,4.60
2022-08-20T08:40:17.385Z,7.57
2022-08-20T08:50:53.106Z,7.50
2022-08-20T09:01:54.281Z,4.50
2022-08-20T09:12:09.594Z,5.35
2022-08-20T09:22:33.357Z,10.35
2022-08-20T09:32:54.892Z,6.38
2022-08-20T09:43:16.484Z,4.18
2022-08-20T09:53:38.019Z,6.18
2022-08-20T10:03:59.616Z,9.13
2022-08-20T10:14:21.141Z,5.40
2022-08-20T10:24:43.055Z,4.80
2022-08-20T10:35:05.110Z,6.10
2022-08-20T10:45:26.741Z,6.18
2022-08-20T10:55:48.277Z,7.53
2022-08-20T11:06:09.843Z,4.38
2022-08-20T11:16:31.504Z,2.63
2022-08-20T11:26:53.448Z,2.90
2022-08-20T11:37:16.543Z,3.60
2022-08-20T11:47:38.502Z,4.43
2022-08-20T11:58:00.942Z,2.95
2022-08-20T12:08:27.058Z,3.97
2022-08-20T12:18:49.646Z,4.00
2022-08-20T12:29:11.174Z,6.80
2022-08-20T12:39:34.623Z,2.55
2022-08-20T12:50:01.179Z,4.95
2022-08-20T13:00:34.493Z,3.35
2022-08-20T13:10:56.047Z,6.32
2022-08-20T13:21:20.082Z,3.63
2022-08-20T13:31:45.533Z,4.68
2022-08-20T13:42:07.285Z,5.85
2022-08-20T13:52:28.872Z,4.80
2022-08-20T14:02:50.491Z,4.10
2022-08-20T14:13:15.316Z,3.83
2022-08-20T14:23:37.181Z,8.43
2022-08-20T14:33:58.694Z,4.05
2022-08-20T14:44:20.247Z,3.25
2022-08-20T14:54:42.564Z,3.45
2022-08-20T15:05:07.015Z,2.13
2022-08-20T15:15:28.900Z,6.55
2022-08-20T15:25:50.413Z,3.75
2022-08-20T15:36:12.151Z,4.45
2022-08-20T15:46:36.249Z,3.17
2022-08-20T15:57:07.334Z,2.30
2022-08-20T16:07:37.083Z,4.10
2022-08-20T16:18:03.203Z,6.60
2022-08-20T16:28:32.644Z,2.05
2022-08-20T16:39:03.408Z,2.27
2022-08-20T16:49:28.462Z,4.75
2022-08-20T17:00:14.921Z,2.53
2022-08-20T17:10:58.427Z,6.10
2022-08-20T17:21:26.967Z,4.28
2022-08-20T17:31:54.587Z,4.72
2022-08-20T17:42:26.125Z,4.63
2022-08-20T17:52:58.816Z,6.50
2022-08-20T18:03:24.829Z,6.65
2022-08-20T18:14:04.724Z,5.05
2022-08-20T18:35:34.281Z,6.30
2022-08-20T18:45:55.926Z,9.13
2022-08-20T18:56:17.689Z,7.95
2022-08-20T19:06:47.751Z,5.47
2022-08-20T19:17:43.864Z,4.78
2022-08-20T19:28:23.602Z,4.18
2022-08-20T19:38:50.116Z,5.70
2022-08-20T19:49:43.115Z,9.40
2022-08-20T20:00:11.238Z,6.68
2022-08-20T20:10:35.691Z,7.85
2022-08-20T20:21:11.595Z,10.48
2022-08-20T20:31:42.559Z,11.73
2022-08-20T20:42:07.138Z,7.25
2022-08-20T20:52:35.648Z,12.45
2022-08-20T21:02:57.389Z,10.30
2022-08-20T21:13:21.784Z,5.47
2022-08-20T21:23:43.357Z,12.35
2022-08-20T21:34:04.868Z,13.30
2022-08-20T21:44:29.751Z,9.65
2022-08-20T21:54:52.372Z,3.58
2022-08-20T22:05:15.099Z,9.02
2022-08-20T22:15:36.654Z,6.63
2022-08-20T22:25:58.199Z,7.93
2022-08-20T22:36:19.742Z,6.85
2022-08-20T22:46:47.384Z,7.18
2022-08-20T22:57:10.415Z,7.63
2022-08-20T23:07:34.085Z,8.00
2022-08-20T23:18:01.870Z,11.45
2022-08-20T23:28:25.106Z,9.07
2022-08-20T23:38:46.983Z,8.90
2022-08-20T23:49:08.553Z,7.95
2022-08-20T23:59:30.156Z,6.85
